Terminal Aerodrome Forecast
Issued by NWS Blacksburg, VA

Current Version | Previous Version | Graphics & Text | Print | Product List | Glossary On
Versions: 1 2 3 4 5 6 7 8 9 10 11 12 13 14 15 16 17 18 19 20 21 22 23 24 25 26 27 28 29 30 31 32 33 34 35 36 37 38 39 40 41
000
FTUS41 KRNK 171720
TAFBLF
TAF
KBLF 171720Z 1718/1818 26007KT P6SM VCSH BKN035
     FM180100 25006KT P6SM SCT040 BKN120
      TEMPO 1804/1807 5SM BR
     FM180700 25005KT P6SM BKN050
      TEMPO 1807/1810 3SM -SHRA BR BKN030
     FM181000 25008KT P6SM -SHRA BKN035
      TEMPO 1815/1818 2SM -TSRA BR BKN025CB=

USA.gov is the U.S. government's official web portal to all federal, state and local government web resources and services.